sensor_id;sensor_type;location;lat;lon;timestamp;temperature;humidity
12413;DHT22;13877;18.896;-99.222;2022-12-10T00:01:36;21.90;35.70
12413;DHT22;13877;18.896;-99.222;2022-12-10T00:04:04;21.80;35.90
12413;DHT22;13877;18.896;-99.222;2022-12-10T00:06:32;21.60;38.50
12413;DHT22;13877;18.896;-99.222;2022-12-10T00:09:04;21.40;37.90
12413;DHT22;13877;18.896;-99.222;2022-12-10T00:11:32;21.20;38.30
12413;DHT22;13877;18.896;-99.222;2022-12-10T00:13:59;21.20;39.40
12413;DHT22;13877;18.896;-99.222;2022-12-10T00:16:27;21.10;40.10
12413;DHT22;13877;18.896;-99.222;2022-12-10T00:18:55;20.90;40.30
12413;DHT22;13877;18.896;-99.222;2022-12-10T00:21:24;20.70;40.40
12413;DHT22;13877;18.896;-99.222;2022-12-10T00:23:51;20.70;39.50
12413;DHT22;13877;18.896;-99.222;2022-12-10T00:26:22;20.70;41.00
12413;DHT22;13877;18.896;-99.222;2022-12-10T00:28:50;20.60;40.40
12413;DHT22;13877;18.896;-99.222;2022-12-10T00:31:23;20.60;40.90
12413;DHT22;13877;18.896;-99.222;2022-12-10T00:33:52;20.40;41.00
12413;DHT22;13877;18.896;-99.222;2022-12-10T00:36:24;20.30;41.80
12413;DHT22;13877;18.896;-99.222;2022-12-10T00:38:52;20.20;39.50
12413;DHT22;13877;18.896;-99.222;2022-12-10T00:41:19;20.60;39.20
12413;DHT22;13877;18.896;-99.222;2022-12-10T00:43:46;20.70;39.70
12413;DHT22;13877;18.896;-99.222;2022-12-10T00:46:15;20.60;39.70
12413;DHT22;13877;18.896;-99.222;2022-12-10T00:48:42;20.50;39.80
12413;DHT22;13877;18.896;-99.222;2022-12-10T00:51:11;20.50;40.30
12413;DHT22;13877;18.896;-99.222;2022-12-10T00:53:40;20.40;41.00
12413;DHT22;13877;18.896;-99.222;2022-12-10T00:56:12;20.40;41.40
12413;DHT22;13877;18.896;-99.222;2022-12-10T00:58:40;20.30;42.00
12413;DHT22;13877;18.896;-99.222;2022-12-10T01:01:10;20.40;42.70
12413;DHT22;13877;18.896;-99.222;2022-12-10T01:03:38;20.40;43.30
12413;DHT22;13877;18.896;-99.222;2022-12-10T01:06:26;20.30;44.20
12413;DHT22;13877;18.896;-99.222;2022-12-10T01:08:57;20.40;43.60
12413;DHT22;13877;18.896;-99.222;2022-12-10T01:11:30;20.40;43.60
12413;DHT22;13877;18.896;-99.222;2022-12-10T01:13:58;20.40;43.60
12413;DHT22;13877;18.896;-99.222;2022-12-10T01:16:25;20.40;43.70
12413;DHT22;13877;18.896;-99.222;2022-12-10T01:18:54;20.40;44.00
12413;DHT22;13877;18.896;-99.222;2022-12-10T01:21:25;20.30;43.90
12413;DHT22;13877;18.896;-99.222;2022-12-10T01:24:04;20.30;43.80
12413;DHT22;13877;18.896;-99.222;2022-12-10T01:26:33;20.30;43.80
12413;DHT22;13877;18.896;-99.222;2022-12-10T01:29:02;20.20;44.00
12413;DHT22;13877;18.896;-99.222;2022-12-10T01:31:33;20.20;43.70
12413;DHT22;13877;18.896;-99.222;2022-12-10T01:34:01;20.10;43.70
12413;DHT22;13877;18.896;-99.222;2022-12-10T01:36:32;20.10;43.50
12413;DHT22;13877;18.896;-99.222;2022-12-10T01:39:01;20.10;43.50
12413;DHT22;13877;18.896;-99.222;2022-12-10T01:41:35;20.20;43.50
12413;DHT22;13877;18.896;-99.222;2022-12-10T01:46:52;20.10;43.40
12413;DHT22;13877;18.896;-99.222;2022-12-10T01:49:21;20.10;43.20
12413;DHT22;13877;18.896;-99.222;2022-12-10T01:51:51;20.10;43.20
12413;DHT22;13877;18.896;-99.222;2022-12-10T01:54:22;20.20;42.90
12413;DHT22;13877;18.896;-99.222;2022-12-10T01:57:07;20.20;43.00
12413;DHT22;13877;18.896;-99.222;2022-12-10T01:59:36;20.20;42.60
12413;DHT22;13877;18.896;-99.222;2022-12-10T02:05:22;20.10;42.60
12413;DHT22;13877;18.896;-99.222;2022-12-10T02:08:08;20.10;42.30
12413;DHT22;13877;18.896;-99.222;2022-12-10T02:13:40;20.20;41.90
12413;DHT22;13877;18.896;-99.222;2022-12-10T02:16:34;20.20;41.80
12413;DHT22;13877;18.896;-99.222;2022-12-10T02:20:05;20.30;41.80
12413;DHT22;13877;18.896;-99.222;2022-12-10T02:22:13;20.20;41.70
12413;DHT22;13877;18.896;-99.222;2022-12-10T02:24:41;20.20;41.80
12413;DHT22;13877;18.896;-99.222;2022-12-10T02:27:40;20.10;41.80
12413;DHT22;13877;18.896;-99.222;2022-12-10T02:30:09;20.10;42.10
12413;DHT22;13877;18.896;-99.222;2022-12-10T02:32:41;20.00;42.00
12413;DHT22;13877;18.896;-99.222;2022-12-10T02:35:25;20.00;42.10
12413;DHT22;13877;18.896;-99.222;2022-12-10T02:38:03;19.90;42.10
12413;DHT22;13877;18.896;-99.222;2022-12-10T02:40:33;19.80;42.30
12413;DHT22;13877;18.896;-99.222;2022-12-10T02:43:03;19.70;42.70
12413;DHT22;13877;18.896;-99.222;2022-12-10T02:45:32;19.70;42.60
12413;DHT22;13877;18.896;-99.222;2022-12-10T02:48:02;19.60;42.70
12413;DHT22;13877;18.896;-99.222;2022-12-10T02:50:36;19.70;42.60
12413;DHT22;13877;18.896;-99.222;2022-12-10T02:53:04;19.80;41.10
12413;DHT22;13877;18.896;-99.222;2022-12-10T02:58:59;20.00;40.60
12413;DHT22;13877;18.896;-99.222;2022-12-10T03:01:54;19.90;40.70
12413;DHT22;13877;18.896;-99.222;2022-12-10T03:04:31;19.90;40.50
12413;DHT22;13877;18.896;-99.222;2022-12-10T03:07:05;20.00;40.20
12413;DHT22;13877;18.896;-99.222;2022-12-10T03:09:43;20.00;40.30
12413;DHT22;13877;18.896;-99.222;2022-12-10T03:12:48;19.90;40.60
12413;DHT22;13877;18.896;-99.222;2022-12-10T03:15:18;19.80;41.10
12413;DHT22;13877;18.896;-99.222;2022-12-10T03:17:47;19.70;41.50
12413;DHT22;13877;18.896;-99.222;2022-12-10T03:20:16;19.60;41.90
12413;DHT22;13877;18.896;-99.222;2022-12-10T03:22:47;19.50;42.20
12413;DHT22;13877;18.896;-99.222;2022-12-10T03:25:21;19.50;42.30
12413;DHT22;13877;18.896;-99.222;2022-12-10T03:27:51;19.30;42.60
12413;DHT22;13877;18.896;-99.222;2022-12-10T03:30:20;19.30;42.90
12413;DHT22;13877;18.896;-99.222;2022-12-10T03:32:46;19.40;42.90
12413;DHT22;13877;18.896;-99.222;2022-12-10T03:35:14;19.30;43.10
12413;DHT22;13877;18.896;-99.222;2022-12-10T03:37:42;19.20;43.50
12413;DHT22;13877;18.896;-99.222;2022-12-10T03:40:11;19.20;43.30
12413;DHT22;13877;18.896;-99.222;2022-12-10T03:42:39;19.20;44.30
12413;DHT22;13877;18.896;-99.222;2022-12-10T03:45:06;19.30;43.60
12413;DHT22;13877;18.896;-99.222;2022-12-10T03:47:34;19.30;43.70
12413;DHT22;13877;18.896;-99.222;2022-12-10T03:50:00;19.30;44.80
12413;DHT22;13877;18.896;-99.222;2022-12-10T03:52:27;19.00;46.50
12413;DHT22;13877;18.896;-99.222;2022-12-10T03:54:54;18.50;47.70
12413;DHT22;13877;18.896;-99.222;2022-12-10T03:57:22;18.40;48.10
12413;DHT22;13877;18.896;-99.222;2022-12-10T03:59:49;18.30;48.10
12413;DHT22;13877;18.896;-99.222;2022-12-10T04:02:16;18.40;47.10
12413;DHT22;13877;18.896;-99.222;2022-12-10T04:04:43;18.70;45.90
12413;DHT22;13877;18.896;-99.222;2022-12-10T04:07:10;18.70;46.10
12413;DHT22;13877;18.896;-99.222;2022-12-10T04:09:37;18.80;45.40
12413;DHT22;13877;18.896;-99.222;2022-12-10T04:12:04;18.90;45.30
12413;DHT22;13877;18.896;-99.222;2022-12-10T04:14:31;18.90;45.10
12413;DHT22;13877;18.896;-99.222;2022-12-10T04:17:17;18.90;45.10
12413;DHT22;13877;18.896;-99.222;2022-12-10T04:19:44;19.00;45.10
12413;DHT22;13877;18.896;-99.222;2022-12-10T04:22:11;19.00;45.00
12413;DHT22;13877;18.896;-99.222;2022-12-10T04:24:56;19.10;44.40
12413;DHT22;13877;18.896;-99.222;2022-12-10T04:27:41;19.10;44.80
12413;DHT22;13877;18.896;-99.222;2022-12-10T04:30:10;19.00;44.80
12413;DHT22;13877;18.896;-99.222;2022-12-10T04:32:38;18.80;45.10
12413;DHT22;13877;18.896;-99.222;2022-12-10T04:35:05;18.70;45.10
12413;DHT22;13877;18.896;-99.222;2022-12-10T04:37:32;18.70;44.90
12413;DHT22;13877;18.896;-99.222;2022-12-10T04:39:59;18.80;45.40
12413;DHT22;13877;18.896;-99.222;2022-12-10T04:42:26;18.70;45.30
12413;DHT22;13877;18.896;-99.222;2022-12-10T04:44:53;18.50;46.10
12413;DHT22;13877;18.896;-99.222;2022-12-10T04:47:20;18.30;47.40
12413;DHT22;13877;18.896;-99.222;2022-12-10T04:49:47;18.10;47.70
12413;DHT22;13877;18.896;-99.222;2022-12-10T04:52:15;18.10;47.50
12413;DHT22;13877;18.896;-99.222;2022-12-10T04:54:43;18.20;47.00
12413;DHT22;13877;18.896;-99.222;2022-12-10T04:57:11;18.40;46.60
12413;DHT22;13877;18.896;-99.222;2022-12-10T04:59:38;18.30;47.00
12413;DHT22;13877;18.896;-99.222;2022-12-10T05:02:05;18.30;47.10
12413;DHT22;13877;18.896;-99.222;2022-12-10T05:04:32;18.40;46.50
12413;DHT22;13877;18.896;-99.222;2022-12-10T05:07:00;18.40;46.00
12413;DHT22;13877;18.896;-99.222;2022-12-10T05:09:27;18.40;45.70
12413;DHT22;13877;18.896;-99.222;2022-12-10T05:11:54;18.40;45.80
12413;DHT22;13877;18.896;-99.222;2022-12-10T05:14:21;18.40;45.90
12413;DHT22;13877;18.896;-99.222;2022-12-10T05:16:49;18.40;46.00
12413;DHT22;13877;18.896;-99.222;2022-12-10T05:19:16;18.30;46.30
12413;DHT22;13877;18.896;-99.222;2022-12-10T05:21:46;18.20;46.10
12413;DHT22;13877;18.896;-99.222;2022-12-10T05:24:31;18.20;46.50
12413;DHT22;13877;18.896;-99.222;2022-12-10T05:26:58;18.00;46.50
12413;DHT22;13877;18.896;-99.222;2022-12-10T05:29:25;17.90;46.40
12413;DHT22;13877;18.896;-99.222;2022-12-10T05:31:52;17.90;46.20
12413;DHT22;13877;18.896;-99.222;2022-12-10T05:34:20;18.00;46.20
12413;DHT22;13877;18.896;-99.222;2022-12-10T05:36:47;18.00;46.20
12413;DHT22;13877;18.896;-99.222;2022-12-10T05:39:14;18.10;45.80
12413;DHT22;13877;18.896;-99.222;2022-12-10T05:41:41;18.20;45.80
12413;DHT22;13877;18.896;-99.222;2022-12-10T05:44:10;18.20;45.80
12413;DHT22;13877;18.896;-99.222;2022-12-10T05:46:37;18.20;45.80
12413;DHT22;13877;18.896;-99.222;2022-12-10T05:49:05;18.10;46.00
12413;DHT22;13877;18.896;-99.222;2022-12-10T05:51:34;18.00;46.30
12413;DHT22;13877;18.896;-99.222;2022-12-10T05:54:02;18.20;45.30
12413;DHT22;13877;18.896;-99.222;2022-12-10T05:56:30;18.30;45.00
12413;DHT22;13877;18.896;-99.222;2022-12-10T05:58:59;18.40;44.80
12413;DHT22;13877;18.896;-99.222;2022-12-10T06:01:29;18.30;44.70
12413;DHT22;13877;18.896;-99.222;2022-12-10T06:03:59;18.20;45.10
12413;DHT22;13877;18.896;-99.222;2022-12-10T06:06:29;18.10;45.00
12413;DHT22;13877;18.896;-99.222;2022-12-10T06:08:57;18.10;45.20
12413;DHT22;13877;18.896;-99.222;2022-12-10T06:11:24;18.10;45.40
12413;DHT22;13877;18.896;-99.222;2022-12-10T06:13:53;18.10;45.50
12413;DHT22;13877;18.896;-99.222;2022-12-10T06:16:21;18.00;45.80
12413;DHT22;13877;18.896;-99.222;2022-12-10T06:18:47;18.00;45.80
12413;DHT22;13877;18.896;-99.222;2022-12-10T06:21:17;17.90;45.60
12413;DHT22;13877;18.896;-99.222;2022-12-10T06:23:45;17.90;45.70
12413;DHT22;13877;18.896;-99.222;2022-12-10T06:26:17;17.80;45.80
12413;DHT22;13877;18.896;-99.222;2022-12-10T06:28:46;17.90;45.70
12413;DHT22;13877;18.896;-99.222;2022-12-10T06:31:14;17.90;45.60
12413;DHT22;13877;18.896;-99.222;2022-12-10T06:33:42;17.90;45.70
12413;DHT22;13877;18.896;-99.222;2022-12-10T06:36:10;17.90;45.70
12413;DHT22;13877;18.896;-99.222;2022-12-10T06:38:38;18.10;46.80
12413;DHT22;13877;18.896;-99.222;2022-12-10T06:41:07;17.90;47.10
12413;DHT22;13877;18.896;-99.222;2022-12-10T06:43:35;17.90;47.00
12413;DHT22;13877;18.896;-99.222;2022-12-10T06:46:06;17.80;46.50
12413;DHT22;13877;18.896;-99.222;2022-12-10T06:48:34;17.80;47.10
12413;DHT22;13877;18.896;-99.222;2022-12-10T06:51:01;17.70;47.20
12413;DHT22;13877;18.896;-99.222;2022-12-10T06:53:30;17.60;47.40
12413;DHT22;13877;18.896;-99.222;2022-12-10T06:56:01;17.60;47.60
12413;DHT22;13877;18.896;-99.222;2022-12-10T06:58:30;17.60;47.50
12413;DHT22;13877;18.896;-99.222;2022-12-10T07:01:06;17.60;47.50
12413;DHT22;13877;18.896;-99.222;2022-12-10T07:03:33;17.50;47.70
12413;DHT22;13877;18.896;-99.222;2022-12-10T07:06:01;17.50;47.80
12413;DHT22;13877;18.896;-99.222;2022-12-10T07:08:28;17.40;48.30
12413;DHT22;13877;18.896;-99.222;2022-12-10T07:10:55;17.60;47.70
12413;DHT22;13877;18.896;-99.222;2022-12-10T07:13:23;17.50;48.30
12413;DHT22;13877;18.896;-99.222;2022-12-10T07:15:51;17.30;48.50
12413;DHT22;13877;18.896;-99.222;2022-12-10T07:18:18;17.20;48.70
12413;DHT22;13877;18.896;-99.222;2022-12-10T07:20:44;17.30;48.70
12413;DHT22;13877;18.896;-99.222;2022-12-10T07:23:12;17.20;48.70
12413;DHT22;13877;18.896;-99.222;2022-12-10T07:25:38;17.30;48.60
12413;DHT22;13877;18.896;-99.222;2022-12-10T07:28:05;17.20;48.70
12413;DHT22;13877;18.896;-99.222;2022-12-10T07:30:32;17.10;48.50
12413;DHT22;13877;18.896;-99.222;2022-12-10T07:32:59;17.20;48.10
12413;DHT22;13877;18.896;-99.222;2022-12-10T07:35:26;17.30;47.70
12413;DHT22;13877;18.896;-99.222;2022-12-10T07:37:53;17.30;47.40
12413;DHT22;13877;18.896;-99.222;2022-12-10T07:40:20;17.20;47.40
12413;DHT22;13877;18.896;-99.222;2022-12-10T07:42:47;17.20;47.20
12413;DHT22;13877;18.896;-99.222;2022-12-10T07:45:14;17.20;47.30
12413;DHT22;13877;18.896;-99.222;2022-12-10T07:47:40;17.20;47.60
12413;DHT22;13877;18.896;-99.222;2022-12-10T07:50:07;17.20;47.20
12413;DHT22;13877;18.896;-99.222;2022-12-10T07:52:36;17.10;47.70
12413;DHT22;13877;18.896;-99.222;2022-12-10T07:55:03;17.10;47.90
12413;DHT22;13877;18.896;-99.222;2022-12-10T07:57:31;17.10;47.90
12413;DHT22;13877;18.896;-99.222;2022-12-10T07:59:58;17.20;47.90
12413;DHT22;13877;18.896;-99.222;2022-12-10T08:02:25;17.20;47.70
12413;DHT22;13877;18.896;-99.222;2022-12-10T08:04:54;17.20;47.80
12413;DHT22;13877;18.896;-99.222;2022-12-10T08:07:21;17.20;48.10
12413;DHT22;13877;18.896;-99.222;2022-12-10T08:09:49;17.20;48.00
12413;DHT22;13877;18.896;-99.222;2022-12-10T08:12:16;17.20;48.10
12413;DHT22;13877;18.896;-99.222;2022-12-10T08:14:44;17.20;48.50
12413;DHT22;13877;18.896;-99.222;2022-12-10T08:17:11;17.20;48.70
12413;DHT22;13877;18.896;-99.222;2022-12-10T08:19:38;17.10;48.60
12413;DHT22;13877;18.896;-99.222;2022-12-10T08:22:06;17.10;48.70
12413;DHT22;13877;18.896;-99.222;2022-12-10T08:24:33;17.10;48.60
12413;DHT22;13877;18.896;-99.222;2022-12-10T08:27:00;17.10;48.80
12413;DHT22;13877;18.896;-99.222;2022-12-10T08:29:27;17.00;49.00
12413;DHT22;13877;18.896;-99.222;2022-12-10T08:31:55;17.00;49.30
12413;DHT22;13877;18.896;-99.222;2022-12-10T08:34:22;17.00;49.30
12413;DHT22;13877;18.896;-99.222;2022-12-10T08:36:49;17.10;49.10
12413;DHT22;13877;18.896;-99.222;2022-12-10T08:39:15;17.10;49.20
12413;DHT22;13877;18.896;-99.222;2022-12-10T08:41:46;17.00;49.50
12413;DHT22;13877;18.896;-99.222;2022-12-10T08:44:14;17.00;49.60
12413;DHT22;13877;18.896;-99.222;2022-12-10T08:46:40;17.00;49.70
12413;DHT22;13877;18.896;-99.222;2022-12-10T08:49:07;17.00;49.50
12413;DHT22;13877;18.896;-99.222;2022-12-10T08:51:34;17.00;49.30
12413;DHT22;13877;18.896;-99.222;2022-12-10T08:54:02;17.10;49.30
12413;DHT22;13877;18.896;-99.222;2022-12-10T08:56:29;17.00;49.20
12413;DHT22;13877;18.896;-99.222;2022-12-10T08:58:56;17.00;49.30
12413;DHT22;13877;18.896;-99.222;2022-12-10T09:01:23;16.90;49.40
12413;DHT22;13877;18.896;-99.222;2022-12-10T09:03:51;16.90;49.60
12413;DHT22;13877;18.896;-99.222;2022-12-10T09:06:20;16.90;49.70
12413;DHT22;13877;18.896;-99.222;2022-12-10T09:08:47;16.80;49.90
12413;DHT22;13877;18.896;-99.222;2022-12-10T09:13:46;16.80;49.90
12413;DHT22;13877;18.896;-99.222;2022-12-10T09:16:13;16.90;49.80
12413;DHT22;13877;18.896;-99.222;2022-12-10T09:18:40;16.90;50.80
12413;DHT22;13877;18.896;-99.222;2022-12-10T09:21:08;16.80;50.30
12413;DHT22;13877;18.896;-99.222;2022-12-10T09:23:36;16.80;50.70
12413;DHT22;13877;18.896;-99.222;2022-12-10T09:26:06;16.70;51.00
12413;DHT22;13877;18.896;-99.222;2022-12-10T09:28:33;16.70;51.10
12413;DHT22;13877;18.896;-99.222;2022-12-10T09:31:01;16.60;51.20
12413;DHT22;13877;18.896;-99.222;2022-12-10T09:33:28;16.70;51.30
12413;DHT22;13877;18.896;-99.222;2022-12-10T09:35:56;16.60;52.20
12413;DHT22;13877;18.896;-99.222;2022-12-10T09:38:23;16.40;53.30
12413;DHT22;13877;18.896;-99.222;2022-12-10T09:46:26;15.90;53.90
12413;DHT22;13877;18.896;-99.222;2022-12-10T09:52:01;15.70;54.80
12413;DHT22;13877;18.896;-99.222;2022-12-10T09:54:55;15.50;55.10
12413;DHT22;13877;18.896;-99.222;2022-12-10T09:57:39;15.60;54.60
12413;DHT22;13877;18.896;-99.222;2022-12-10T10:00:21;15.80;53.00
12413;DHT22;13877;18.896;-99.222;2022-12-10T10:02:50;15.90;53.00
12413;DHT22;13877;18.896;-99.222;2022-12-10T10:05:25;16.00;52.40
12413;DHT22;13877;18.896;-99.222;2022-12-10T10:07:59;16.10;51.60
12413;DHT22;13877;18.896;-99.222;2022-12-10T10:10:36;16.10;51.70
12413;DHT22;13877;18.896;-99.222;2022-12-10T10:13:26;16.10;51.50
12413;DHT22;13877;18.896;-99.222;2022-12-10T10:15:55;16.20;51.40
12413;DHT22;13877;18.896;-99.222;2022-12-10T10:19:05;16.10;51.10
12413;DHT22;13877;18.896;-99.222;2022-12-10T10:21:36;16.20;50.90
12413;DHT22;13877;18.896;-99.222;2022-12-10T10:24:06;16.20;51.10
12413;DHT22;13877;18.896;-99.222;2022-12-10T10:26:34;16.30;51.10
12413;DHT22;13877;18.896;-99.222;2022-12-10T10:29:05;16.30;51.10
12413;DHT22;13877;18.896;-99.222;2022-12-10T10:31:34;16.40;51.60
12413;DHT22;13877;18.896;-99.222;2022-12-10T10:34:21;16.40;51.80
12413;DHT22;13877;18.896;-99.222;2022-12-10T10:36:56;16.40;52.00
12413;DHT22;13877;18.896;-99.222;2022-12-10T10:39:29;16.50;52.10
12413;DHT22;13877;18.896;-99.222;2022-12-10T10:41:58;16.40;52.10
12413;DHT22;13877;18.896;-99.222;2022-12-10T10:44:35;16.40;52.70
12413;DHT22;13877;18.896;-99.222;2022-12-10T10:47:03;16.30;52.80
12413;DHT22;13877;18.896;-99.222;2022-12-10T10:49:49;16.30;53.00
12413;DHT22;13877;18.896;-99.222;2022-12-10T10:52:17;16.20;53.30
12413;DHT22;13877;18.896;-99.222;2022-12-10T10:54:45;16.30;53.60
12413;DHT22;13877;18.896;-99.222;2022-12-10T10:59:52;16.30;53.50
12413;DHT22;13877;18.896;-99.222;2022-12-10T11:02:42;16.30;53.40
12413;DHT22;13877;18.896;-99.222;2022-12-10T11:05:28;16.30;52.80
12413;DHT22;13877;18.896;-99.222;2022-12-10T11:08:02;16.30;53.00
12413;DHT22;13877;18.896;-99.222;2022-12-10T11:10:30;16.30;52.80
12413;DHT22;13877;18.896;-99.222;2022-12-10T11:13:18;16.30;52.70
12413;DHT22;13877;18.896;-99.222;2022-12-10T11:15:45;16.20;52.70
12413;DHT22;13877;18.896;-99.222;2022-12-10T11:18:30;16.20;52.70
12413;DHT22;13877;18.896;-99.222;2022-12-10T11:21:10;16.20;52.60
12413;DHT22;13877;18.896;-99.222;2022-12-10T11:23:45;16.10;52.70
12413;DHT22;13877;18.896;-99.222;2022-12-10T11:37:08;15.70;52.90
12413;DHT22;13877;18.896;-99.222;2022-12-10T11:42:23;15.70;53.20
12413;DHT22;13877;18.896;-99.222;2022-12-10T11:45:48;15.70;53.10
12413;DHT22;13877;18.896;-99.222;2022-12-10T11:50:52;15.90;51.80
12413;DHT22;13877;18.896;-99.222;2022-12-10T11:53:32;15.90;51.80
12413;DHT22;13877;18.896;-99.222;2022-12-10T11:56:43;15.90;51.70
12413;DHT22;13877;18.896;-99.222;2022-12-10T11:59:28;15.90;51.40
12413;DHT22;13877;18.896;-99.222;2022-12-10T12:02:19;16.00;51.40
12413;DHT22;13877;18.896;-99.222;2022-12-10T12:07:56;16.00;51.00
12413;DHT22;13877;18.896;-99.222;2022-12-10T12:13:31;15.90;50.40
12413;DHT22;13877;18.896;-99.222;2022-12-10T12:16:09;16.00;50.30
12413;DHT22;13877;18.896;-99.222;2022-12-10T12:18:54;16.00;50.00
12413;DHT22;13877;18.896;-99.222;2022-12-10T12:21:22;16.10;49.50
12413;DHT22;13877;18.896;-99.222;2022-12-10T12:24:21;16.10;49.20
12413;DHT22;13877;18.896;-99.222;2022-12-10T12:27:00;16.10;49.10
12413;DHT22;13877;18.896;-99.222;2022-12-10T12:29:46;16.00;49.30
12413;DHT22;13877;18.896;-99.222;2022-12-10T12:33:05;16.00;49.90
12413;DHT22;13877;18.896;-99.222;2022-12-10T12:37:56;15.90;50.20
12413;DHT22;13877;18.896;-99.222;2022-12-10T12:40:40;15.90;50.90
12413;DHT22;13877;18.896;-99.222;2022-12-10T12:43:17;15.80;51.60
12413;DHT22;13877;18.896;-99.222;2022-12-10T12:45:49;15.70;52.70
12413;DHT22;13877;18.896;-99.222;2022-12-10T12:48:43;15.70;53.10
12413;DHT22;13877;18.896;-99.222;2022-12-10T12:51:37;15.80;53.10
12413;DHT22;13877;18.896;-99.222;2022-12-10T12:54:07;15.80;53.00
12413;DHT22;13877;18.896;-99.222;2022-12-10T12:59:30;15.70;53.10
12413;DHT22;13877;18.896;-99.222;2022-12-10T13:05:17;15.90;52.20
12413;DHT22;13877;18.896;-99.222;2022-12-10T13:10:52;15.90;52.20
12413;DHT22;13877;18.896;-99.222;2022-12-10T13:13:34;15.90;52.50
12413;DHT22;13877;18.896;-99.222;2022-12-10T13:30:01;16.20;51.70
12413;DHT22;13877;18.896;-99.222;2022-12-10T13:35:18;16.60;51.60
12413;DHT22;13877;18.896;-99.222;2022-12-10T13:40:23;16.70;52.20
12413;DHT22;13877;18.896;-99.222;2022-12-10T13:46:34;16.70;53.40
12413;DHT22;13877;18.896;-99.222;2022-12-10T13:49:22;16.50;54.20
12413;DHT22;13877;18.896;-99.222;2022-12-10T13:51:57;16.40;54.90
12413;DHT22;13877;18.896;-99.222;2022-12-10T14:02:28;17.00;54.70
12413;DHT22;13877;18.896;-99.222;2022-12-10T14:07:54;17.70;54.20
12413;DHT22;13877;18.896;-99.222;2022-12-10T14:10:30;17.80;54.20
12413;DHT22;13877;18.896;-99.222;2022-12-10T14:12:59;18.20;54.30
12413;DHT22;13877;18.896;-99.222;2022-12-10T14:15:29;18.70;53.70
12413;DHT22;13877;18.896;-99.222;2022-12-10T14:18:03;19.10;53.00
12413;DHT22;13877;18.896;-99.222;2022-12-10T14:20:32;19.40;52.30
12413;DHT22;13877;18.896;-99.222;2022-12-10T14:23:05;19.60;52.40
12413;DHT22;13877;18.896;-99.222;2022-12-10T14:26:14;19.80;51.90
12413;DHT22;13877;18.896;-99.222;2022-12-10T14:28:46;20.10;51.30
12413;DHT22;13877;18.896;-99.222;2022-12-10T14:31:17;19.80;52.10
12413;DHT22;13877;18.896;-99.222;2022-12-10T14:33:46;19.90;52.10
12413;DHT22;13877;18.896;-99.222;2022-12-10T14:36:28;20.40;51.40
12413;DHT22;13877;18.896;-99.222;2022-12-10T14:38:57;20.80;50.20
12413;DHT22;13877;18.896;-99.222;2022-12-10T14:41:27;21.00;49.80
12413;DHT22;13877;18.896;-99.222;2022-12-10T14:43:58;21.00;48.50
12413;DHT22;13877;18.896;-99.222;2022-12-10T14:46:30;21.00;49.10
12413;DHT22;13877;18.896;-99.222;2022-12-10T14:48:57;21.10;49.00
12413;DHT22;13877;18.896;-99.222;2022-12-10T14:51:31;21.30;49.40
12413;DHT22;13877;18.896;-99.222;2022-12-10T14:53:59;21.50;49.40
12413;DHT22;13877;18.896;-99.222;2022-12-10T14:56:34;21.90;49.00
12413;DHT22;13877;18.896;-99.222;2022-12-10T14:59:19;21.60;48.90
12413;DHT22;13877;18.896;-99.222;2022-12-10T15:01:51;21.60;49.50
12413;DHT22;13877;18.896;-99.222;2022-12-10T15:04:20;21.70;49.60
12413;DHT22;13877;18.896;-99.222;2022-12-10T15:06:47;22.00;50.00
12413;DHT22;13877;18.896;-99.222;2022-12-10T15:09:19;22.50;50.20
12413;DHT22;13877;18.896;-99.222;2022-12-10T15:11:56;22.80;48.30
12413;DHT22;13877;18.896;-99.222;2022-12-10T15:14:24;23.20;46.90
12413;DHT22;13877;18.896;-99.222;2022-12-10T15:16:53;23.30;46.80
12413;DHT22;13877;18.896;-99.222;2022-12-10T15:19:33;23.20;47.50
12413;DHT22;13877;18.896;-99.222;2022-12-10T15:22:21;23.20;47.00
12413;DHT22;13877;18.896;-99.222;2022-12-10T15:24:48;22.90;47.70
12413;DHT22;13877;18.896;-99.222;2022-12-10T15:27:25;22.90;47.20
12413;DHT22;13877;18.896;-99.222;2022-12-10T15:29:53;23.20;47.30
12413;DHT22;13877;18.896;-99.222;2022-12-10T15:32:26;23.20;46.70
12413;DHT22;13877;18.896;-99.222;2022-12-10T15:34:59;23.50;46.20
12413;DHT22;13877;18.896;-99.222;2022-12-10T15:37:34;23.60;45.60
12413;DHT22;13877;18.896;-99.222;2022-12-10T15:40:06;23.90;44.80
12413;DHT22;13877;18.896;-99.222;2022-12-10T15:42:43;23.80;45.30
12413;DHT22;13877;18.896;-99.222;2022-12-10T15:45:24;23.60;45.20
12413;DHT22;13877;18.896;-99.222;2022-12-10T15:47:57;23.50;45.50
12413;DHT22;13877;18.896;-99.222;2022-12-10T15:50:28;23.50;45.70
12413;DHT22;13877;18.896;-99.222;2022-12-10T15:52:55;23.50;45.00
12413;DHT22;13877;18.896;-99.222;2022-12-10T15:55:22;23.10;45.70
12413;DHT22;13877;18.896;-99.222;2022-12-10T15:57:49;23.20;46.30
12413;DHT22;13877;18.896;-99.222;2022-12-10T16:00:22;23.20;45.90
12413;DHT22;13877;18.896;-99.222;2022-12-10T16:03:03;23.20;45.30
12413;DHT22;13877;18.896;-99.222;2022-12-10T16:05:33;23.60;45.90
12413;DHT22;13877;18.896;-99.222;2022-12-10T16:08:26;24.00;45.30
12413;DHT22;13877;18.896;-99.222;2022-12-10T16:10:56;24.00;44.90
12413;DHT22;13877;18.896;-99.222;2022-12-10T16:13:30;24.10;43.40
12413;DHT22;13877;18.896;-99.222;2022-12-10T16:16:02;24.00;43.10
12413;DHT22;13877;18.896;-99.222;2022-12-10T16:18:31;23.50;43.40
12413;DHT22;13877;18.896;-99.222;2022-12-10T16:20:58;23.80;42.90
12413;DHT22;13877;18.896;-99.222;2022-12-10T16:23:25;24.00;42.60
12413;DHT22;13877;18.896;-99.222;2022-12-10T16:25:52;23.80;43.50
12413;DHT22;13877;18.896;-99.222;2022-12-10T16:28:21;23.60;43.30
12413;DHT22;13877;18.896;-99.222;2022-12-10T16:30:50;24.10;43.50
12413;DHT22;13877;18.896;-99.222;2022-12-10T16:33:18;24.10;43.50
12413;DHT22;13877;18.896;-99.222;2022-12-10T16:35:46;24.40;43.00
12413;DHT22;13877;18.896;-99.222;2022-12-10T16:38:13;24.60;43.70
12413;DHT22;13877;18.896;-99.222;2022-12-10T16:40:42;24.40;43.20
12413;DHT22;13877;18.896;-99.222;2022-12-10T16:43:24;25.00;41.80
12413;DHT22;13877;18.896;-99.222;2022-12-10T16:45:52;25.20;41.40
12413;DHT22;13877;18.896;-99.222;2022-12-10T16:48:19;25.10;42.10
12413;DHT22;13877;18.896;-99.222;2022-12-10T16:50:48;24.70;41.60
12413;DHT22;13877;18.896;-99.222;2022-12-10T16:55:46;24.70;42.40
12413;DHT22;13877;18.896;-99.222;2022-12-10T16:58:14;25.30;41.70
12413;DHT22;13877;18.896;-99.222;2022-12-10T17:00:44;25.50;41.00
12413;DHT22;13877;18.896;-99.222;2022-12-10T17:03:17;25.50;41.70
12413;DHT22;13877;18.896;-99.222;2022-12-10T17:05:53;25.40;40.60
12413;DHT22;13877;18.896;-99.222;2022-12-10T17:08:21;25.50;41.10